createdAt,value
2017-10-10T00:00:38.369Z,7.37
2017-10-10T00:03:06.658Z,7.30
2017-10-10T00:05:34.932Z,11.07
2017-10-10T00:08:03.179Z,10.57
2017-10-10T00:10:32.207Z,7.67
2017-10-10T00:13:00.450Z,9.43
2017-10-10T00:15:29.474Z,7.50
2017-10-10T00:17:57.721Z,6.60
2017-10-10T00:20:25.978Z,8.27
2017-10-10T00:22:54.223Z,7.50
2017-10-10T00:25:22.484Z,6.60
2017-10-10T00:27:51.515Z,6.30
2017-10-10T00:30:19.775Z,6.53
2017-10-10T00:32:48.089Z,6.20
2017-10-10T00:35:16.396Z,7.63
2017-10-10T00:37:44.613Z,8.77
2017-10-10T00:40:13.645Z,6.90
2017-10-10T00:42:41.891Z,6.90
2017-10-10T00:45:10.935Z,8.77
2017-10-10T00:47:39.202Z,7.93
2017-10-10T00:50:07.466Z,9.27
2017-10-10T00:52:35.731Z,7.87
2017-10-10T00:55:04.765Z,9.00
2017-10-10T00:57:33.041Z,11.00
2017-10-10T01:00:01.299Z,15.20
2017-10-10T01:02:29.565Z,9.27
2017-10-10T01:04:58.630Z,12.10
2017-10-10T01:07:26.892Z,11.43
2017-10-10T01:09:55.145Z,7.97
2017-10-10T01:12:23.407Z,7.63
2017-10-10T01:14:52.461Z,8.80
2017-10-10T01:17:20.711Z,7.30
2017-10-10T01:19:48.981Z,8.80
2017-10-10T01:22:18.877Z,8.00
2017-10-10T01:24:47.216Z,8.00
2017-10-10T01:27:15.503Z,6.67
2017-10-10T01:29:43.775Z,8.03
2017-10-10T01:32:12.038Z,9.33
2017-10-10T01:34:40.337Z,8.57
2017-10-10T01:37:08.598Z,7.40
2017-10-10T01:39:36.842Z,8.57
2017-10-10T01:42:05.183Z,7.30
2017-10-10T01:44:33.425Z,7.40
2017-10-10T01:47:02.468Z,7.60
2017-10-10T01:49:30.737Z,16.20
2017-10-10T01:51:59.015Z,12.00
2017-10-10T01:54:27.308Z,9.37
2017-10-10T01:56:55.578Z,9.60
2017-10-10T01:59:23.862Z,8.10
2017-10-10T02:01:52.145Z,7.17
2017-10-10T02:04:20.429Z,9.17
2017-10-10T02:06:48.726Z,8.20
2017-10-10T02:09:16.995Z,9.60
2017-10-10T02:11:45.244Z,11.47
2017-10-10T02:14:13.520Z,7.40
2017-10-10T02:16:42.538Z,16.43
2017-10-10T02:19:10.806Z,15.10
2017-10-10T02:21:39.127Z,18.77
2017-10-10T02:24:07.390Z,12.47
2017-10-10T02:26:35.644Z,9.30
2017-10-10T02:29:04.679Z,7.97
2017-10-10T02:31:32.926Z,8.40
2017-10-10T02:34:01.196Z,8.83
2017-10-10T02:36:30.201Z,7.00
2017-10-10T02:38:59.231Z,8.10
2017-10-10T02:41:27.484Z,12.57
2017-10-10T02:43:56.624Z,12.40
2017-10-10T02:46:24.941Z,11.47
2017-10-10T02:48:54.147Z,10.80
2017-10-10T02:51:22.408Z,13.10
2017-10-10T02:53:50.687Z,10.97
2017-10-10T02:56:18.947Z,9.70
2017-10-10T02:58:47.203Z,6.70
2017-10-10T03:01:15.450Z,10.17
2017-10-10T03:03:44.481Z,8.07
2017-10-10T03:06:12.788Z,15.50
2017-10-10T03:08:41.812Z,15.50
2017-10-10T03:11:10.168Z,15.27
2017-10-10T03:13:38.447Z,10.47
2017-10-10T03:16:06.728Z,13.37
2017-10-10T03:18:35.020Z,8.80
2017-10-10T03:21:03.276Z,10.23
2017-10-10T03:23:31.571Z,9.40
2017-10-10T03:25:59.839Z,14.30
2017-10-10T03:28:28.080Z,8.70
2017-10-10T03:30:57.196Z,10.50
2017-10-10T03:33:26.218Z,10.50
2017-10-10T03:35:54.505Z,9.30
2017-10-10T03:38:22.810Z,8.57
2017-10-10T03:40:51.064Z,8.23
2017-10-10T03:43:19.361Z,8.20
2017-10-10T03:45:47.620Z,8.67
2017-10-10T03:48:15.865Z,8.23
2017-10-10T03:50:44.137Z,13.20
2017-10-10T03:53:12.389Z,9.40
2017-10-10T03:55:40.672Z,8.63
2017-10-10T03:58:08.927Z,8.90
2017-10-10T04:00:37.195Z,8.60
2017-10-10T04:03:06.210Z,12.47
2017-10-10T04:05:34.506Z,17.90
2017-10-10T04:08:02.759Z,18.40
2017-10-10T04:10:31.050Z,22.30
2017-10-10T04:12:59.294Z,9.73
2017-10-10T04:15:27.555Z,12.80
2017-10-10T04:17:55.922Z,10.13
2017-10-10T04:20:24.299Z,10.10
2017-10-10T04:22:52.542Z,9.73
2017-10-10T04:25:21.563Z,10.70
2017-10-10T04:27:49.834Z,9.07
2017-10-10T04:30:18.086Z,8.63
2017-10-10T04:32:46.351Z,10.37
2017-10-10T04:35:14.605Z,12.90
2017-10-10T04:37:42.890Z,11.60
2017-10-10T04:40:11.208Z,11.37
2017-10-10T04:42:39.456Z,11.43
2017-10-10T04:45:07.714Z,12.47
2017-10-10T04:47:36.003Z,11.77
2017-10-10T04:50:05.012Z,12.67
2017-10-10T04:52:33.296Z,12.77
2017-10-10T04:55:01.568Z,11.43
2017-10-10T04:57:30.196Z,14.60
2017-10-10T04:59:59.294Z,15.77
2017-10-10T05:02:27.949Z,15.43
2017-10-10T05:04:56.243Z,12.63
2017-10-10T05:07:24.514Z,12.43
2017-10-10T05:09:52.770Z,14.83
2017-10-10T05:12:21.039Z,14.53
2017-10-10T05:14:49.356Z,11.23
2017-10-10T05:17:17.616Z,11.57
2017-10-10T05:19:45.870Z,13.27
2017-10-10T05:22:14.905Z,15.83
2017-10-10T05:24:43.168Z,15.43
2017-10-10T05:27:12.303Z,16.33
2017-10-10T05:29:40.588Z,14.03
2017-10-10T05:32:08.870Z,14.23
2017-10-10T05:34:37.143Z,12.40
2017-10-10T05:37:06.250Z,15.40
2017-10-10T05:39:34.514Z,15.60
2017-10-10T05:42:02.835Z,16.40
2017-10-10T05:44:31.128Z,14.90
2017-10-10T05:47:00.905Z,13.60
2017-10-10T05:49:29.171Z,15.97
2017-10-10T05:51:57.477Z,13.27
2017-10-10T05:54:25.750Z,11.27
2017-10-10T05:56:53.999Z,13.77
2017-10-10T05:59:23.036Z,12.67
2017-10-10T06:01:51.291Z,12.80
2017-10-10T06:04:19.571Z,14.20
2017-10-10T06:06:47.821Z,13.20
2017-10-10T06:09:16.262Z,14.63
2017-10-10T06:11:44.545Z,14.27
2017-10-10T06:14:12.820Z,13.73
2017-10-10T06:16:41.103Z,15.80
2017-10-10T06:19:09.365Z,13.37
2017-10-10T06:21:37.701Z,14.37
2017-10-10T06:24:06.047Z,15.97
2017-10-10T06:26:34.335Z,13.30
2017-10-10T06:29:02.602Z,13.77
2017-10-10T06:31:30.871Z,14.00
2017-10-10T06:33:59.142Z,17.67
2017-10-10T06:36:28.166Z,14.37
2017-10-10T06:38:56.455Z,14.13
2017-10-10T06:41:24.712Z,17.00
2017-10-10T06:43:53.026Z,14.13
2017-10-10T06:46:21.290Z,14.97
2017-10-10T06:48:49.556Z,13.20
2017-10-10T06:51:17.825Z,14.40
2017-10-10T06:53:46.131Z,14.03
2017-10-10T06:56:14.427Z,14.50
2017-10-10T06:58:42.682Z,14.40
2017-10-10T07:01:10.955Z,12.63
2017-10-10T07:03:39.215Z,12.37
2017-10-10T07:06:07.481Z,17.50
2017-10-10T07:08:35.726Z,15.40
2017-10-10T07:11:04.007Z,14.20
2017-10-10T07:13:32.263Z,13.83
2017-10-10T07:16:00.536Z,13.53
2017-10-10T07:18:29.571Z,13.63
2017-10-10T07:20:57.841Z,14.40
2017-10-10T07:23:26.114Z,14.43
2017-10-10T07:25:54.421Z,13.23
2017-10-10T07:28:22.767Z,13.60
2017-10-10T07:30:51.055Z,13.57
2017-10-10T07:33:19.302Z,14.40
2017-10-10T07:35:47.588Z,14.53
2017-10-10T07:38:16.073Z,15.13
2017-10-10T07:40:44.551Z,15.00
2017-10-10T07:43:13.809Z,14.13
2017-10-10T07:45:42.949Z,13.57
2017-10-10T07:48:11.549Z,14.63
2017-10-10T07:50:39.927Z,13.03
2017-10-10T07:53:08.184Z,13.57
2017-10-10T07:55:36.485Z,13.13
2017-10-10T07:58:04.751Z,13.30
2017-10-10T08:00:33.031Z,14.90
2017-10-10T08:03:01.314Z,12.77
2017-10-10T08:05:29.572Z,16.20
2017-10-10T08:07:57.885Z,13.63
2017-10-10T08:10:26.159Z,12.63
2017-10-10T08:12:54.434Z,14.93
2017-10-10T08:15:22.682Z,12.63
2017-10-10T08:17:50.958Z,13.77
2017-10-10T08:20:20.043Z,13.70
2017-10-10T08:22:48.384Z,14.60
2017-10-10T08:25:16.701Z,15.13
2017-10-10T08:27:44.947Z,12.63
2017-10-10T08:30:13.196Z,16.10
2017-10-10T08:32:41.506Z,14.27
2017-10-10T08:35:09.766Z,12.20
2017-10-10T08:37:38.030Z,13.77
2017-10-10T08:40:07.054Z,14.23
2017-10-10T08:42:35.322Z,12.83
2017-10-10T08:45:03.586Z,12.77
2017-10-10T08:47:32.644Z,14.87
2017-10-10T08:50:00.906Z,15.03
2017-10-10T08:52:29.184Z,16.20
2017-10-10T08:54:57.443Z,16.17
2017-10-10T08:57:25.726Z,17.63
2017-10-10T08:59:53.987Z,13.63
2017-10-10T09:02:23.036Z,15.97
2017-10-10T09:04:51.311Z,12.43
2017-10-10T09:07:19.599Z,13.10
2017-10-10T09:09:47.885Z,12.70
2017-10-10T09:12:16.129Z,12.33
2017-10-10T09:14:44.438Z,12.73
2017-10-10T09:17:12.694Z,13.53
2017-10-10T09:19:40.962Z,13.17
2017-10-10T09:22:09.225Z,13.27
2017-10-10T09:24:38.273Z,13.30
2017-10-10T09:27:06.560Z,17.30
2017-10-10T09:29:34.847Z,12.97
2017-10-10T09:32:03.119Z,13.33
2017-10-10T09:34:31.391Z,17.50
2017-10-10T09:36:59.646Z,13.87
2017-10-10T09:39:28.784Z,13.33
2017-10-10T09:41:57.041Z,14.50
2017-10-10T09:44:25.351Z,13.53
2017-10-10T09:46:53.609Z,16.43
2017-10-10T09:49:21.871Z,17.07
2017-10-10T09:51:50.191Z,15.33
2017-10-10T09:54:18.474Z,14.67
2017-10-10T09:56:46.741Z,13.43
2017-10-10T09:59:15.011Z,13.47
2017-10-10T10:01:47.550Z,14.90
2017-10-10T10:04:15.835Z,13.83
2017-10-10T10:06:44.086Z,13.40
2017-10-10T10:09:12.365Z,12.93
2017-10-10T10:11:40.619Z,13.40
2017-10-10T10:14:08.895Z,13.70
2017-10-10T10:16:37.206Z,16.00
2017-10-10T10:19:05.461Z,13.90
2017-10-10T10:21:33.762Z,13.20
2017-10-10T10:24:02.028Z,13.00
2017-10-10T10:26:30.302Z,13.57
2017-10-10T10:28:58.548Z,12.27
2017-10-10T10:31:27.582Z,13.37
2017-10-10T10:33:55.843Z,12.60
2017-10-10T10:36:24.883Z,12.43
2017-10-10T10:38:53.140Z,12.70
2017-10-10T10:41:21.411Z,11.00
2017-10-10T10:43:50.438Z,12.57
2017-10-10T10:46:18.705Z,11.70
2017-10-10T10:48:47.174Z,15.00
2017-10-10T10:51:15.419Z,11.43
2017-10-10T10:53:43.678Z,13.50
2017-10-10T10:56:11.956Z,11.90
2017-10-10T10:58:40.239Z,11.60
2017-10-10T11:01:08.508Z,12.83
2017-10-10T11:03:36.761Z,11.10
2017-10-10T11:06:05.800Z,11.13
2017-10-10T11:08:34.281Z,11.30
2017-10-10T11:11:02.531Z,10.13
2017-10-10T11:13:31.561Z,11.27
2017-10-10T11:15:59.831Z,12.30
2017-10-10T11:18:28.098Z,10.60
2017-10-10T11:20:57.115Z,9.97
2017-10-10T11:23:25.369Z,9.93
2017-10-10T11:25:54.416Z,10.87
2017-10-10T11:28:22.784Z,9.90
2017-10-10T11:30:51.075Z,11.70
2017-10-10T11:33:19.350Z,9.70
2017-10-10T11:35:47.613Z,10.07
2017-10-10T11:38:15.910Z,9.83
2017-10-10T11:40:44.203Z,9.13
2017-10-10T11:43:12.478Z,9.90
2017-10-10T11:45:40.730Z,9.30
2017-10-10T11:48:09.044Z,8.90
2017-10-10T11:50:37.288Z,9.97
2017-10-10T11:53:06.317Z,10.70
2017-10-10T11:55:34.606Z,11.93
2017-10-10T11:58:02.882Z,9.20
2017-10-10T12:00:31.132Z,9.80
2017-10-10T12:02:59.399Z,8.53
2017-10-10T12:05:28.432Z,8.60
2017-10-10T12:07:56.707Z,12.57
2017-10-10T12:10:24.984Z,10.60
2017-10-10T12:12:53.322Z,8.27
2017-10-10T12:15:21.563Z,8.83
2017-10-10T12:17:49.828Z,8.70
2017-10-10T12:20:18.152Z,9.00
2017-10-10T12:22:46.394Z,8.67
2017-10-10T12:25:15.427Z,9.90
2017-10-10T12:27:43.784Z,8.60
2017-10-10T12:30:12.047Z,8.37
2017-10-10T12:32:40.320Z,10.33
2017-10-10T12:35:09.327Z,8.30
2017-10-10T12:37:37.639Z,8.47
2017-10-10T12:40:05.897Z,7.97
2017-10-10T12:42:34.952Z,8.67
2017-10-10T12:45:03.176Z,8.73
2017-10-10T12:47:31.423Z,9.53
2017-10-10T12:49:59.760Z,8.50
2017-10-10T12:52:28.028Z,9.20
2017-10-10T12:54:56.328Z,9.73
2017-10-10T12:57:24.574Z,9.43
2017-10-10T12:59:53.605Z,10.07
2017-10-10T13:02:21.862Z,7.70
2017-10-10T13:04:50.891Z,10.30
2017-10-10T13:07:19.131Z,9.23
2017-10-10T13:09:48.152Z,9.17
2017-10-10T13:12:16.392Z,9.13
2017-10-10T13:14:44.744Z,7.93
2017-10-10T13:17:13.006Z,7.80
2017-10-10T13:19:41.292Z,8.40
2017-10-10T13:22:09.528Z,8.33
2017-10-10T13:24:38.553Z,8.03
2017-10-10T13:27:07.555Z,7.70
2017-10-10T13:29:35.812Z,9.73
2017-10-10T13:32:04.812Z,6.60
2017-10-10T13:34:33.835Z,8.30
2017-10-10T13:37:02.077Z,7.93
2017-10-10T13:39:30.452Z,9.60
2017-10-10T13:41:59.103Z,7.40
2017-10-10T13:44:27.734Z,8.87
2017-10-10T13:46:55.980Z,7.63
2017-10-10T13:49:24.271Z,7.53
2017-10-10T13:51:52.531Z,9.53
2017-10-10T13:54:20.774Z,9.33
2017-10-10T13:56:49.801Z,7.30
2017-10-10T13:59:18.056Z,7.43
2017-10-10T14:01:47.085Z,7.10
2017-10-10T14:04:15.332Z,6.37
2017-10-10T14:06:44.370Z,7.20
2017-10-10T14:09:12.615Z,5.67
2017-10-10T14:11:41.652Z,8.30
2017-10-10T14:14:09.901Z,5.97
2017-10-10T14:16:38.919Z,4.80
2017-10-10T14:19:07.158Z,4.07
2017-10-10T14:21:36.214Z,4.03
2017-10-10T14:24:04.482Z,4.20
2017-10-10T14:26:32.766Z,5.33
2017-10-10T14:29:01.104Z,4.40
2017-10-10T14:31:29.395Z,3.90
2017-10-10T14:33:58.432Z,6.97
2017-10-10T14:36:26.756Z,3.77
2017-10-10T14:38:55.033Z,3.60
2017-10-10T14:41:24.046Z,3.90
2017-10-10T14:43:53.053Z,5.23
2017-10-10T14:46:22.087Z,6.00
2017-10-10T14:48:50.371Z,4.83
2017-10-10T14:51:18.652Z,5.83
2017-10-10T14:53:46.938Z,6.57
2017-10-10T14:56:15.208Z,6.47
2017-10-10T14:58:43.494Z,6.57
2017-10-10T15:01:11.775Z,7.03
2017-10-10T15:03:40.075Z,8.70
2017-10-10T15:06:08.319Z,7.73
2017-10-10T15:08:37.355Z,6.80
2017-10-10T15:11:05.623Z,6.27
2017-10-10T15:13:33.886Z,7.50
2017-10-10T15:16:02.181Z,7.07
2017-10-10T15:18:30.438Z,6.97
2017-10-10T15:20:59.440Z,7.20
2017-10-10T15:23:27.707Z,7.23
2017-10-10T15:25:56.743Z,7.37
2017-10-10T15:28:25.003Z,6.67
2017-10-10T15:30:53.258Z,7.50
2017-10-10T15:33:22.298Z,6.83
2017-10-10T15:35:50.580Z,7.60
2017-10-10T15:38:18.835Z,9.60
2017-10-10T15:40:47.168Z,7.33
2017-10-10T15:43:15.524Z,7.10
2017-10-10T15:45:43.773Z,8.50
2017-10-10T15:48:12.807Z,6.97
2017-10-10T15:50:41.086Z,6.87
2017-10-10T15:53:09.351Z,8.10
2017-10-10T15:55:37.595Z,7.40
2017-10-10T15:58:05.934Z,7.57
2017-10-10T16:00:34.171Z,8.30
2017-10-10T16:03:03.219Z,7.50
2017-10-10T16:05:31.495Z,7.23
2017-10-10T16:07:59.777Z,7.83
2017-10-10T16:10:28.020Z,6.73
2017-10-10T16:12:57.028Z,7.17
2017-10-10T16:15:25.282Z,7.33
2017-10-10T16:17:54.297Z,6.70
2017-10-10T16:20:23.448Z,7.27
2017-10-10T16:22:52.448Z,6.83
2017-10-10T16:25:20.712Z,7.57
2017-10-10T16:27:48.967Z,8.73
2017-10-10T16:30:17.239Z,9.57
2017-10-10T16:32:46.248Z,7.20
2017-10-10T16:35:15.276Z,7.50
2017-10-10T16:37:43.519Z,7.23
2017-10-10T16:40:12.543Z,6.90
2017-10-10T16:42:40.789Z,6.83
2017-10-10T16:45:09.807Z,6.80
2017-10-10T16:47:38.831Z,6.60
2017-10-10T16:50:07.093Z,5.80
2017-10-10T16:52:35.434Z,8.23
2017-10-10T16:55:03.850Z,7.43
2017-10-10T16:57:32.854Z,7.43
2017-10-10T17:00:01.882Z,7.77
2017-10-10T17:02:30.131Z,6.53
2017-10-10T17:04:59.150Z,6.10
2017-10-10T17:07:27.395Z,6.23
2017-10-10T17:09:56.415Z,5.90
2017-10-10T17:12:24.653Z,7.60
2017-10-10T17:14:52.900Z,6.47
2017-10-10T17:17:21.156Z,6.60
2017-10-10T17:19:50.183Z,7.27
2017-10-10T17:22:18.418Z,7.30
2017-10-10T17:24:47.440Z,6.50
2017-10-10T17:27:15.697Z,6.23
2017-10-10T17:29:44.735Z,5.50
2017-10-10T17:32:12.978Z,7.00
2017-10-10T17:34:42.163Z,6.67
2017-10-10T17:37:10.415Z,7.07
2017-10-10T17:39:38.686Z,6.20
2017-10-10T17:42:06.943Z,6.80
2017-10-10T17:44:35.179Z,6.23
2017-10-10T17:47:03.439Z,6.03
2017-10-10T17:49:31.674Z,6.73
2017-10-10T17:52:00.712Z,7.10
2017-10-10T17:54:28.957Z,7.00
2017-10-10T17:56:57.979Z,7.10
2017-10-10T17:59:26.224Z,8.23
2017-10-10T18:01:55.247Z,7.33
2017-10-10T18:04:23.492Z,8.90
2017-10-10T18:06:51.751Z,7.73
2017-10-10T18:09:20.015Z,7.60
2017-10-10T18:11:48.299Z,6.47
2017-10-10T18:14:16.579Z,6.67
2017-10-10T18:16:44.830Z,7.00
2017-10-10T18:19:13.066Z,7.73
2017-10-10T18:21:41.322Z,5.87
2017-10-10T18:24:09.558Z,7.23
2017-10-10T18:26:38.592Z,7.90
2017-10-10T18:29:06.831Z,6.67
2017-10-10T18:31:35.856Z,7.10
2017-10-10T18:34:04.159Z,6.57
2017-10-10T18:36:32.449Z,7.70
2017-10-10T18:39:01.627Z,7.57
2017-10-10T18:41:29.867Z,6.40
2017-10-10T18:43:58.126Z,6.50
2017-10-10T18:46:26.368Z,8.73
2017-10-10T18:48:54.622Z,6.87
2017-10-10T18:51:22.869Z,7.20
2017-10-10T18:53:51.129Z,7.13
2017-10-10T18:56:19.363Z,6.73
2017-10-10T18:58:48.399Z,6.33
2017-10-10T19:01:16.643Z,6.87
2017-10-10T19:03:44.905Z,6.83
2017-10-10T19:06:13.146Z,6.80
2017-10-10T19:08:41.402Z,6.53
2017-10-10T19:11:10.412Z,7.40
2017-10-10T19:13:38.666Z,7.50
2017-10-10T19:16:07.666Z,7.23
2017-10-10T19:18:36.707Z,6.03
2017-10-10T19:21:04.946Z,6.10
2017-10-10T19:23:33.972Z,6.20
2017-10-10T19:26:02.206Z,6.63
2017-10-10T19:28:30.467Z,6.00
2017-10-10T19:30:58.708Z,6.00
2017-10-10T19:33:27.011Z,6.00
2017-10-10T19:35:55.312Z,6.17
2017-10-10T19:38:23.586Z,6.40
2017-10-10T19:40:51.863Z,6.10
2017-10-10T19:43:20.206Z,6.83
2017-10-10T19:45:49.210Z,5.70
2017-10-10T19:48:18.251Z,5.70
2017-10-10T19:50:46.519Z,6.07
2017-10-10T19:53:14.763Z,6.60
2017-10-10T19:55:43.788Z,7.50
2017-10-10T19:58:12.030Z,6.33
2017-10-10T20:00:41.090Z,6.37
2017-10-10T20:03:09.333Z,8.67
2017-10-10T20:05:38.368Z,7.33
2017-10-10T20:08:06.638Z,6.77
2017-10-10T20:10:34.899Z,5.83
2017-10-10T20:13:03.324Z,7.50
2017-10-10T20:15:31.937Z,7.40
2017-10-10T20:18:01.143Z,6.20
2017-10-10T20:20:30.334Z,6.80
2017-10-10T20:22:58.610Z,6.07
2017-10-10T20:25:26.872Z,6.97
2017-10-10T20:27:55.119Z,6.37
2017-10-10T20:30:23.438Z,7.33
2017-10-10T20:32:51.710Z,7.00
2017-10-10T20:35:19.982Z,7.73
2017-10-10T20:37:48.234Z,8.40
2017-10-10T20:40:17.262Z,8.00
2017-10-10T20:42:45.508Z,7.60
2017-10-10T20:45:14.529Z,9.50
2017-10-10T20:47:42.825Z,9.87
2017-10-10T20:50:11.091Z,10.43
2017-10-10T20:52:39.340Z,10.10
2017-10-10T20:55:07.607Z,11.50
2017-10-10T20:57:35.959Z,11.03
2017-10-10T21:00:04.234Z,10.80
2017-10-10T21:02:32.515Z,10.33
2017-10-10T21:05:00.781Z,13.50
2017-10-10T21:07:29.028Z,10.63
2017-10-10T21:09:58.162Z,10.70
2017-10-10T21:12:26.418Z,11.20
2017-10-10T21:14:55.436Z,11.10
2017-10-10T21:17:23.699Z,9.40
2017-10-10T21:19:52.734Z,10.80
2017-10-10T21:22:21.023Z,10.87
2017-10-10T21:24:49.312Z,9.90
2017-10-10T21:27:17.568Z,9.93
2017-10-10T21:29:45.825Z,11.23
2017-10-10T21:32:14.859Z,11.17
2017-10-10T21:34:43.115Z,11.30
2017-10-10T21:37:11.418Z,10.40
2017-10-10T21:39:39.691Z,12.27
2017-10-10T21:42:08.083Z,11.60
2017-10-10T21:44:36.895Z,10.93
2017-10-10T21:47:06.697Z,12.07
2017-10-10T21:49:34.980Z,11.97
2017-10-10T21:52:03.259Z,11.80
2017-10-10T21:54:31.518Z,12.13
2017-10-10T21:56:59.795Z,12.30
2017-10-10T21:59:28.107Z,11.87
2017-10-10T22:01:56.374Z,11.53
2017-10-10T22:04:24.630Z,11.97
2017-10-10T22:06:52.909Z,11.30
2017-10-10T22:09:21.179Z,11.27
2017-10-10T22:11:50.192Z,10.83
2017-10-10T22:14:18.439Z,11.87
2017-10-10T22:16:47.484Z,10.50
2017-10-10T22:19:15.785Z,11.10
2017-10-10T22:21:44.052Z,11.50
2017-10-10T22:24:12.336Z,11.47
2017-10-10T22:26:40.619Z,11.00
2017-10-10T22:29:08.895Z,11.73
2017-10-10T22:31:37.148Z,11.33
2017-10-10T22:34:06.192Z,12.57
2017-10-10T22:36:34.468Z,12.03
2017-10-10T22:39:02.762Z,11.73
2017-10-10T22:41:31.026Z,11.37
2017-10-10T22:44:00.210Z,11.17
2017-10-10T22:46:28.478Z,12.33
2017-10-10T22:48:56.784Z,10.37
2017-10-10T22:51:25.039Z,10.80
2017-10-10T22:53:53.303Z,11.57
2017-10-10T22:56:22.352Z,10.83
2017-10-10T22:58:50.633Z,11.50
2017-10-10T23:01:18.903Z,11.30
2017-10-10T23:03:47.161Z,10.93
2017-10-10T23:06:16.163Z,10.77
2017-10-10T23:08:44.472Z,10.67
2017-10-10T23:11:12.758Z,11.63
2017-10-10T23:13:41.030Z,10.70
2017-10-10T23:16:09.279Z,10.80
2017-10-10T23:18:38.312Z,12.17
2017-10-10T23:21:06.590Z,11.70
2017-10-10T23:23:34.898Z,13.67
2017-10-10T23:26:03.154Z,14.53
2017-10-10T23:28:31.419Z,12.90
2017-10-10T23:30:59.711Z,13.43
2017-10-10T23:33:27.966Z,11.37
2017-10-10T23:35:56.289Z,12.00
2017-10-10T23:38:24.548Z,11.60
2017-10-10T23:40:52.834Z,11.03
2017-10-10T23:43:21.082Z,11.97
2017-10-10T23:45:50.115Z,12.40
2017-10-10T23:48:18.394Z,10.70
2017-10-10T23:50:46.667Z,11.67
2017-10-10T23:53:14.921Z,10.80
2017-10-10T23:55:43.947Z,11.40
2017-10-10T23:58:12.197Z,10.33
